createdAt,value
2023-10-13T00:00:38.087Z,100894.59
2023-10-13T00:03:16.525Z,100894.63
2023-10-13T00:05:47.370Z,100894.66
2023-10-13T00:08:18.932Z,100892.97
2023-10-13T00:10:51.794Z,100887.69
2023-10-13T00:13:22.783Z,100892.13
2023-10-13T00:15:59.099Z,100893.00
2023-10-13T00:18:34.651Z,100887.78
2023-10-13T00:21:13.987Z,100901.00
2023-10-13T00:23:54.054Z,100888.66
2023-10-13T00:26:29.244Z,100890.44
2023-10-13T00:29:18.197Z,100890.50
2023-10-13T00:31:50.047Z,100870.34
2023-10-13T00:34:26.802Z,100870.28
2023-10-13T00:37:09.263Z,100865.94
2023-10-13T00:39:41.971Z,100866.81
2023-10-13T00:42:19.581Z,100855.44
2023-10-13T00:44:50.207Z,100858.03
2023-10-13T00:47:38.343Z,100860.72
2023-10-13T00:50:06.978Z,100847.59
2023-10-13T00:53:01.051Z,100849.38
2023-10-13T00:55:28.524Z,100849.38
2023-10-13T00:58:04.692Z,100845.88
2023-10-13T01:00:32.327Z,100846.84
2023-10-13T01:03:08.776Z,100834.59
2023-10-13T01:05:39.320Z,100833.72
2023-10-13T01:08:13.379Z,100828.44
2023-10-13T01:10:43.096Z,100820.56
2023-10-13T01:13:21.901Z,100815.34
2023-10-13T01:15:49.740Z,100814.47
2023-10-13T01:18:21.818Z,100811.84
2023-10-13T01:20:53.701Z,100813.63
2023-10-13T01:23:29.845Z,100816.25
2023-10-13T01:25:57.784Z,100805.75
2023-10-13T01:28:27.784Z,100794.31
2023-10-13T01:30:55.074Z,100799.56
2023-10-13T01:33:28.480Z,100797.84
2023-10-13T01:35:59.963Z,100785.56
2023-10-13T01:38:34.891Z,100782.97
2023-10-13T01:41:06.037Z,100776.84
2023-10-13T01:43:36.209Z,100776.84
2023-10-13T01:46:05.003Z,100776.84
2023-10-13T01:48:40.278Z,100767.22
2023-10-13T01:51:11.176Z,100768.97
2023-10-13T01:53:45.148Z,100774.28
2023-10-13T01:56:12.594Z,100765.50
2023-10-13T01:58:49.086Z,100762.00
2023-10-13T02:01:27.918Z,100747.09
2023-10-13T02:04:05.643Z,100746.25
2023-10-13T02:06:34.026Z,100733.97
2023-10-13T02:09:27.018Z,100734.88
2023-10-13T02:11:55.793Z,100732.25
2023-10-13T02:14:27.080Z,100731.38
2023-10-13T02:17:12.984Z,100726.09
2023-10-13T02:19:45.255Z,100723.47
2023-10-13T02:22:13.560Z,100720.84
2023-10-13T02:24:46.684Z,100721.78
2023-10-13T02:27:15.217Z,100715.59
2023-10-13T02:29:47.554Z,100713.06
2023-10-13T02:35:09.051Z,100697.25
2023-10-13T02:38:33.101Z,100697.25
2023-10-13T02:41:30.178Z,100693.75
2023-10-13T02:44:13.285Z,100699.94
2023-10-13T02:46:41.573Z,100688.53
2023-10-13T02:49:44.239Z,100685.00
2023-10-13T02:52:39.434Z,100680.66
2023-10-13T02:55:10.913Z,100692.13
2023-10-13T02:57:43.343Z,100684.22
2023-10-13T03:00:13.896Z,100671.91
2023-10-13T03:02:46.407Z,100674.56
2023-10-13T03:05:15.009Z,100673.72
2023-10-13T03:07:46.003Z,100670.22
2023-10-13T03:10:13.239Z,100669.31
2023-10-13T03:12:49.625Z,100660.53
2023-10-13T03:15:19.440Z,100657.03
2023-10-13T03:17:50.088Z,100647.38
2023-10-13T03:20:23.904Z,100652.66
2023-10-13T03:22:56.921Z,100652.72
2023-10-13T03:25:25.810Z,100646.59
2023-10-13T03:28:06.447Z,100646.63
2023-10-13T03:30:39.890Z,100640.50
2023-10-13T03:33:13.168Z,100643.13
2023-10-13T03:35:44.625Z,100643.13
2023-10-13T03:38:28.615Z,100638.72
2023-10-13T03:41:08.673Z,100636.13
2023-10-13T03:43:53.221Z,100627.31
2023-10-13T03:46:23.805Z,100627.31
2023-10-13T03:49:00.817Z,100609.69
2023-10-13T03:51:35.085Z,100615.88
2023-10-13T03:54:09.414Z,100625.59
2023-10-13T03:56:42.945Z,100607.97
2023-10-13T03:59:22.138Z,100605.34
2023-10-13T04:02:00.046Z,100605.31
2023-10-13T04:04:50.134Z,100600.03
2023-10-13T04:07:32.300Z,100601.81
2023-10-13T04:10:14.349Z,100600.03
2023-10-13T04:12:56.653Z,100609.75
2023-10-13T04:15:38.225Z,100602.72
2023-10-13T04:18:30.236Z,100593.91
2023-10-13T04:21:20.160Z,100591.25
2023-10-13T04:24:02.589Z,100596.53
2023-10-13T04:26:44.148Z,100587.72
2023-10-13T04:29:28.906Z,100578.91
2023-10-13T04:32:14.850Z,100577.16
2023-10-13T04:34:47.099Z,100584.19
2023-10-13T04:37:30.580Z,100564.81
2023-10-13T04:40:01.294Z,100566.56
2023-10-13T04:42:51.016Z,100555.13
2023-10-13T04:45:45.675Z,100552.47
2023-10-13T04:48:19.404Z,100541.88
2023-10-13T04:50:51.797Z,100541.03
2023-10-13T04:53:31.073Z,100543.66
2023-10-13T04:56:31.825Z,100523.38
2023-10-13T04:59:14.016Z,100526.03
2023-10-13T05:02:14.035Z,100520.75
2023-10-13T05:05:00.433Z,100511.06
2023-10-13T05:07:42.893Z,100506.66
2023-10-13T05:10:25.400Z,100498.72
2023-10-13T05:13:07.745Z,100494.31
2023-10-13T05:15:49.966Z,100499.59
2023-10-13T05:18:32.190Z,100490.81
2023-10-13T05:21:17.037Z,100483.75
2023-10-13T05:26:59.942Z,100474.88
2023-10-13T05:29:42.239Z,100471.38
2023-10-13T05:32:24.620Z,100471.38
2023-10-13T05:35:06.906Z,100472.25
2023-10-13T05:37:51.804Z,100463.44
2023-10-13T05:40:34.181Z,100455.50
2023-10-13T05:43:16.461Z,100457.28
2023-10-13T05:45:58.607Z,100452.00
2023-10-13T05:48:43.204Z,100452.88
2023-10-13T05:51:25.541Z,100454.63
2023-10-13T05:54:10.375Z,100450.22
2023-10-13T05:56:52.688Z,100450.22
2023-10-13T05:59:35.003Z,100447.56
2023-10-13T06:02:17.301Z,100443.19
2023-10-13T06:04:59.836Z,100445.78
2023-10-13T06:07:42.365Z,100443.19
2023-10-13T06:10:27.328Z,100430.84
2023-10-13T06:13:09.611Z,100435.22
2023-10-13T06:15:52.845Z,100438.78
2023-10-13T06:18:35.052Z,100437.00
2023-10-13T06:21:17.856Z,100428.19
2023-10-13T06:24:00.101Z,100420.25
2023-10-13T06:26:45.057Z,100433.47
2023-10-13T06:29:21.851Z,100429.03
2023-10-13T06:31:52.176Z,100429.03
2023-10-13T06:34:29.530Z,100414.94
2023-10-13T06:36:59.829Z,100414.06
2023-10-13T06:39:42.775Z,100404.34
2023-10-13T06:42:14.993Z,100406.13
2023-10-13T06:44:46.947Z,100392.00
2023-10-13T06:47:16.887Z,100397.28
2023-10-13T06:49:47.213Z,100397.31
2023-10-13T06:52:17.445Z,100389.38
2023-10-13T06:54:47.689Z,100385.84
2023-10-13T06:57:21.804Z,100380.53
2023-10-13T06:59:54.582Z,100386.69
2023-10-13T07:02:28.762Z,100377.00
2023-10-13T07:05:09.430Z,100377.88
2023-10-13T07:07:40.309Z,100372.59
2023-10-13T07:10:13.139Z,100359.34
2023-10-13T07:12:45.829Z,100369.03
2023-10-13T07:15:20.907Z,100360.22
2023-10-13T07:17:56.264Z,100349.63
2023-10-13T07:20:35.160Z,100346.13
2023-10-13T07:23:07.644Z,100345.22
2023-10-13T07:25:38.905Z,100330.25
2023-10-13T07:28:12.135Z,100315.25
2023-10-13T07:30:50.898Z,100309.94
2023-10-13T07:33:21.532Z,100306.41
2023-10-13T07:35:53.341Z,100301.97
2023-10-13T07:38:23.737Z,100296.72
2023-10-13T07:40:54.971Z,100289.66
2023-10-13T07:43:28.836Z,100290.56
2023-10-13T07:46:00.105Z,100286.13
2023-10-13T07:48:29.961Z,100277.31
2023-10-13T07:51:05.132Z,100266.78
2023-10-13T07:53:41.381Z,100266.72
2023-10-13T07:56:13.229Z,100259.66
2023-10-13T07:58:54.244Z,100265.00
2023-10-13T08:01:24.255Z,100250.84
2023-10-13T08:04:06.080Z,100251.75
2023-10-13T08:06:38.035Z,100238.50
2023-10-13T08:09:30.088Z,100239.44
2023-10-13T08:12:01.335Z,100234.13
2023-10-13T08:14:38.905Z,100231.44
2023-10-13T08:17:13.876Z,100247.34
2023-10-13T08:19:46.249Z,100240.28
2023-10-13T08:22:37.498Z,100242.03
2023-10-13T08:25:26.500Z,100233.25
2023-10-13T08:28:11.360Z,100246.47
2023-10-13T08:30:53.825Z,100247.34
2023-10-13T08:33:27.505Z,100224.47
2023-10-13T08:36:19.725Z,100237.66
2023-10-13T08:38:56.735Z,100241.19
2023-10-13T08:41:30.857Z,100258.75
2023-10-13T08:44:07.559Z,100246.41
2023-10-13T08:46:52.186Z,100252.56
2023-10-13T08:49:24.850Z,100250.78
2023-10-13T08:52:06.872Z,100242.78
2023-10-13T08:54:35.732Z,100252.44
2023-10-13T08:57:19.136Z,100225.88
2023-10-13T08:59:54.274Z,100239.00
2023-10-13T09:02:52.320Z,100232.78
2023-10-13T09:05:34.746Z,100232.72
2023-10-13T09:08:11.145Z,100228.25
2023-10-13T09:10:46.423Z,100232.69
2023-10-13T09:13:22.421Z,100236.16
2023-10-13T09:16:04.796Z,100239.69
2023-10-13T09:18:49.709Z,100226.41
2023-10-13T09:21:32.332Z,100229.97
2023-10-13T09:24:14.318Z,100235.25
2023-10-13T09:26:44.280Z,100232.59
2023-10-13T09:29:23.568Z,100236.13
2023-10-13T09:32:01.588Z,100222.88
2023-10-13T09:34:36.242Z,100221.16
2023-10-13T09:37:05.501Z,100218.47
2023-10-13T09:39:46.359Z,100221.13
2023-10-13T09:42:17.568Z,100200.84
2023-10-13T09:44:52.925Z,100195.50
2023-10-13T09:47:32.486Z,100189.31
2023-10-13T09:50:15.550Z,100187.50
2023-10-13T09:52:43.365Z,100180.38
2023-10-13T09:55:19.852Z,100177.75
2023-10-13T09:57:58.933Z,100175.97
2023-10-13T10:00:47.669Z,100161.84
2023-10-13T10:03:33.080Z,100180.34
2023-10-13T10:06:17.128Z,100171.47
2023-10-13T10:08:49.866Z,100163.47
2023-10-13T10:11:32.408Z,100153.75
2023-10-13T10:14:10.166Z,100146.56
2023-10-13T10:16:55.923Z,100133.28
2023-10-13T10:19:25.892Z,100139.38
2023-10-13T10:22:06.622Z,100114.59
2023-10-13T10:24:37.978Z,100119.75
2023-10-13T10:27:08.169Z,100093.03
2023-10-13T10:29:38.008Z,100095.63
2023-10-13T10:32:17.099Z,100099.06
2023-10-13T10:34:47.003Z,100083.00
2023-10-13T10:37:19.873Z,100080.25
2023-10-13T10:39:51.218Z,100078.28
2023-10-13T10:42:24.897Z,100068.38
2023-10-13T10:45:06.629Z,100074.34
2023-10-13T10:47:38.681Z,100065.34
2023-10-13T10:50:20.806Z,100059.06
2023-10-13T10:52:58.865Z,100053.59
2023-10-13T10:55:30.576Z,100060.56
2023-10-13T10:58:07.120Z,100055.22
2023-10-13T11:00:47.735Z,100056.88
2023-10-13T11:03:18.717Z,100056.88
2023-10-13T11:05:50.241Z,100064.78
2023-10-13T11:08:32.884Z,100025.75
2023-10-13T11:11:06.786Z,100025.63
2023-10-13T11:13:52.472Z,100008.84
2023-10-13T11:16:35.758Z,99999.06
2023-10-13T11:19:06.702Z,100001.78
2023-10-13T11:21:38.954Z,100000.78
2023-10-13T11:24:13.128Z,99978.53
2023-10-13T11:26:50.881Z,99990.81
2023-10-13T11:29:23.867Z,99996.78
2023-10-13T11:31:59.932Z,99993.84
2023-10-13T11:34:41.448Z,99977.66
2023-10-13T11:37:24.002Z,99979.47
2023-10-13T11:39:58.789Z,99994.47
2023-10-13T11:42:30.099Z,99977.53
2023-10-13T11:45:18.185Z,99981.03
2023-10-13T11:48:00.503Z,99969.41
2023-10-13T11:50:36.966Z,99974.72
2023-10-13T11:53:09.634Z,99961.53
2023-10-13T11:55:42.498Z,99964.09
2023-10-13T11:58:18.800Z,99956.13
2023-10-13T12:01:03.958Z,99946.09
2023-10-13T12:03:46.376Z,99937.81
2023-10-13T12:06:34.604Z,99938.50
2023-10-13T12:09:30.671Z,99949.69
2023-10-13T12:12:05.803Z,99939.75
2023-10-13T12:14:39.196Z,99931.75
2023-10-13T12:17:12.241Z,99930.09
2023-10-13T12:19:52.523Z,99927.34
2023-10-13T12:22:28.371Z,99923.84
2023-10-13T12:24:58.707Z,99923.75
2023-10-13T12:27:47.029Z,99927.25
2023-10-13T12:30:23.795Z,99921.81
2023-10-13T12:33:07.832Z,99926.00
2023-10-13T12:35:46.731Z,99917.09
2023-10-13T12:38:38.724Z,99913.44
2023-10-13T12:41:34.580Z,99911.69
2023-10-13T12:44:24.871Z,99916.22
2023-10-13T12:50:27.533Z,99894.06
2023-10-13T12:53:05.728Z,99875.34
2023-10-13T12:55:54.869Z,99877.84
2023-10-13T12:58:29.734Z,99866.84
2023-10-13T13:01:13.222Z,99861.06
2023-10-13T13:03:46.796Z,99859.22
2023-10-13T13:06:31.832Z,99852.97
2023-10-13T13:09:10.852Z,99856.09
2023-10-13T13:11:41.381Z,99856.91
2023-10-13T13:14:13.399Z,99849.03
2023-10-13T13:16:54.373Z,99844.50
2023-10-13T13:22:28.186Z,99829.66
2023-10-13T13:24:58.796Z,99829.84
2023-10-13T13:27:39.493Z,99821.97
2023-10-13T13:30:23.715Z,99809.69
2023-10-13T13:33:08.528Z,99796.47
2023-10-13T13:35:42.124Z,99793.00
2023-10-13T13:38:28.379Z,99796.66
2023-10-13T13:41:00.605Z,99794.03
2023-10-13T13:43:58.014Z,99802.97
2023-10-13T13:46:34.602Z,99774.53
2023-10-13T13:49:08.795Z,99779.19
2023-10-13T13:51:39.429Z,99786.41
2023-10-13T13:54:10.484Z,99790.00
2023-10-13T13:56:42.236Z,99782.13
2023-10-13T13:59:19.978Z,99766.38
2023-10-13T14:01:50.625Z,99751.53
2023-10-13T14:04:23.169Z,99751.72
2023-10-13T14:07:37.653Z,99748.25
2023-10-13T14:10:20.209Z,99752.78
2023-10-13T14:13:14.718Z,99754.56
2023-10-13T14:15:45.379Z,99744.00
2023-10-13T14:18:30.165Z,99752.78
2023-10-13T14:21:25.830Z,99746.44
2023-10-13T14:24:02.004Z,99751.44
2023-10-13T14:26:32.803Z,99753.13
2023-10-13T14:29:07.099Z,99734.91
2023-10-13T14:31:38.436Z,99734.63
2023-10-13T14:34:08.699Z,99742.50
2023-10-13T14:36:41.366Z,99742.31
2023-10-13T14:39:12.889Z,99735.91
2023-10-13T14:41:51.878Z,99738.41
2023-10-13T14:44:26.432Z,99724.88
2023-10-13T14:46:56.968Z,99724.00
2023-10-13T14:49:44.527Z,99731.69
2023-10-13T14:52:20.316Z,99726.28
2023-10-13T14:54:56.544Z,99726.34
2023-10-13T14:57:28.706Z,99724.47
2023-10-13T14:59:59.744Z,99728.06
2023-10-13T15:02:29.689Z,99731.59
2023-10-13T15:05:04.084Z,99726.16
2023-10-13T15:07:38.066Z,99737.78
2023-10-13T15:10:16.142Z,99731.59
2023-10-13T15:19:21.871Z,99725.41
2023-10-13T15:21:58.032Z,99730.84
2023-10-13T15:24:46.782Z,99721.00
2023-10-13T15:30:21.413Z,99707.91
2023-10-13T15:32:55.382Z,99702.78
2023-10-13T15:35:34.895Z,99705.38
2023-10-13T15:38:14.073Z,99712.41
2023-10-13T15:40:57.960Z,99709.31
2023-10-13T15:43:54.115Z,99697.91
2023-10-13T15:48:04.022Z,99705.84
2023-10-13T15:49:58.666Z,99699.09
2023-10-13T15:52:33.184Z,99698.44
2023-10-13T15:55:23.218Z,99706.47
2023-10-13T15:58:12.899Z,99710.16
2023-10-13T16:01:14.812Z,99700.44
2023-10-13T16:04:02.516Z,99708.72
2023-10-13T16:06:43.912Z,99702.63
2023-10-13T16:12:29.054Z,99702.53
2023-10-13T16:15:42.137Z,99677.91
2023-10-13T16:18:35.660Z,99686.09
2023-10-13T16:21:26.278Z,99710.06
2023-10-13T16:24:37.657Z,99699.31
2023-10-13T16:27:27.788Z,99723.59
2023-10-13T16:30:39.931Z,99719.25
2023-10-13T16:36:23.694Z,99726.94
2023-10-13T16:39:10.660Z,99724.53
2023-10-13T16:41:54.382Z,99712.13
2023-10-13T16:44:29.207Z,99722.00
2023-10-13T16:47:21.464Z,99731.66
2023-10-13T16:50:30.567Z,99736.41
2023-10-13T16:53:11.682Z,99730.31
2023-10-13T16:56:18.794Z,99724.94
2023-10-13T16:59:09.553Z,99726.53
2023-10-13T17:01:39.929Z,99741.53
2023-10-13T17:04:38.236Z,99727.13
2023-10-13T17:07:53.947Z,99733.50
2023-10-13T17:13:42.076Z,99746.88
2023-10-13T17:19:55.839Z,99742.25
2023-10-13T17:22:57.783Z,99725.41
2023-10-13T17:28:59.133Z,99713.06
2023-10-13T17:31:57.217Z,99704.13
2023-10-13T17:34:59.491Z,99702.28
2023-10-13T17:41:25.681Z,99709.94
2023-10-13T17:43:57.324Z,99715.16
2023-10-13T17:46:27.394Z,99709.72
2023-10-13T17:48:58.080Z,99707.16
2023-10-13T17:51:31.016Z,99720.59
2023-10-13T17:54:01.200Z,99704.66
2023-10-13T17:56:32.165Z,99693.22
2023-10-13T17:59:02.098Z,99706.63
2023-10-13T18:01:33.402Z,99720.88
2023-10-13T18:04:06.223Z,99711.34
2023-10-13T18:06:39.568Z,99702.63
2023-10-13T18:09:12.633Z,99694.72
2023-10-13T18:11:44.137Z,99690.56
2023-10-13T18:14:17.204Z,99665.06
2023-10-13T18:16:50.911Z,99677.53
2023-10-13T18:19:22.260Z,99673.41
2023-10-13T18:21:56.217Z,99669.09
2023-10-13T18:24:28.335Z,99651.56
2023-10-13T18:26:58.666Z,99658.56
2023-10-13T18:29:28.857Z,99665.72
2023-10-13T18:32:00.469Z,99657.06
2023-10-13T18:34:30.342Z,99650.19
2023-10-13T18:37:03.928Z,99642.34
2023-10-13T18:39:37.988Z,99651.31
2023-10-13T18:42:08.874Z,99646.97
2023-10-13T18:44:39.072Z,99639.16
2023-10-13T18:47:09.679Z,99635.72
2023-10-13T18:49:40.189Z,99622.56
2023-10-13T18:52:12.581Z,99621.00
2023-10-13T18:54:42.859Z,99621.97
2023-10-13T18:57:15.282Z,99607.84
2023-10-13T18:59:45.179Z,99598.94
2023-10-13T19:02:15.204Z,99602.63
2023-10-13T19:04:45.041Z,99600.88
2023-10-13T19:07:17.484Z,99604.56
2023-10-13T19:09:48.257Z,99602.94
2023-10-13T19:12:23.900Z,99615.25
2023-10-13T19:14:54.197Z,99609.84
2023-10-13T19:17:24.670Z,99615.16
2023-10-13T19:19:54.743Z,99611.66
2023-10-13T19:22:27.558Z,99604.47
2023-10-13T19:24:58.176Z,99605.25
2023-10-13T19:27:28.779Z,99597.06
2023-10-13T19:29:59.010Z,99603.97
2023-10-13T19:32:29.023Z,99603.63
2023-10-13T19:34:58.948Z,99609.69
2023-10-13T19:37:31.533Z,99600.72
2023-10-13T19:40:01.926Z,99613.03
2023-10-13T19:42:32.039Z,99617.22
2023-10-13T19:45:04.225Z,99619.88
2023-10-13T19:47:34.587Z,99620.50
2023-10-13T19:50:04.605Z,99629.28
2023-10-13T19:52:37.015Z,99622.34
2023-10-13T19:55:07.381Z,99629.38
2023-10-13T19:57:37.900Z,99627.69
2023-10-13T20:00:10.137Z,99628.91
2023-10-13T20:02:43.747Z,99639.06
2023-10-13T20:05:18.997Z,99638.63
2023-10-13T20:07:51.770Z,99631.16
2023-10-13T20:10:22.800Z,99617.25
2023-10-13T20:12:53.083Z,99635.31
2023-10-13T20:15:22.829Z,99646.22
2023-10-13T20:17:52.772Z,99648.25
2023-10-13T20:20:28.240Z,99636.06
2023-10-13T20:23:01.079Z,99627.47
2023-10-13T20:25:30.967Z,99603.84
2023-10-13T20:28:02.158Z,99602.22
2023-10-13T20:30:34.809Z,99584.66
2023-10-13T20:33:10.715Z,99597.91
2023-10-13T20:35:42.424Z,99583.00
2023-10-13T20:38:14.903Z,99567.16
2023-10-13T20:40:44.884Z,99566.31
2023-10-13T20:43:16.146Z,99557.38
2023-10-13T20:45:47.023Z,99548.56
2023-10-13T20:48:18.735Z,99538.84
2023-10-13T20:50:48.685Z,99541.47
2023-10-13T20:53:21.284Z,99550.38
2023-10-13T20:56:02.058Z,99553.03
2023-10-13T20:58:32.331Z,99566.34
2023-10-13T21:01:02.788Z,99577.91
2023-10-13T21:03:33.158Z,99553.25
2023-10-13T21:06:03.444Z,99534.81
2023-10-13T21:08:37.472Z,99554.22
2023-10-13T21:11:08.241Z,99545.41
2023-10-13T21:13:38.957Z,99547.25
2023-10-13T21:16:11.423Z,99536.66
2023-10-13T21:18:43.204Z,99542.75
2023-10-13T21:21:20.732Z,99527.75
2023-10-13T21:23:54.404Z,99517.16
2023-10-13T21:26:25.312Z,99499.50
2023-10-13T21:28:56.440Z,99516.41
2023-10-13T21:31:26.708Z,99508.53
2023-10-13T21:33:57.886Z,99517.41
2023-10-13T21:36:28.831Z,99498.94
2023-10-13T21:39:01.410Z,99486.53
2023-10-13T21:41:31.414Z,99493.53
2023-10-13T21:44:04.551Z,99494.41
2023-10-13T21:46:36.618Z,99486.47
2023-10-13T21:49:09.756Z,99479.41
2023-10-13T21:51:40.888Z,99489.13
2023-10-13T21:54:13.598Z,99513.75
2023-10-13T21:56:43.648Z,99486.28
2023-10-13T21:59:14.454Z,99519.84
2023-10-13T22:01:45.600Z,99500.44
2023-10-13T22:04:22.655Z,99481.00
2023-10-13T22:06:55.357Z,99487.09
2023-10-13T22:09:28.097Z,99477.31
2023-10-13T22:11:58.390Z,99485.28
2023-10-13T22:14:28.395Z,99486.16
2023-10-13T22:16:58.367Z,99476.44
2023-10-13T22:19:30.680Z,99481.66
2023-10-13T22:22:02.276Z,99483.34
2023-10-13T22:24:35.016Z,99467.44
2023-10-13T22:27:07.580Z,99473.53
2023-10-13T22:29:37.559Z,99453.91
2023-10-13T22:32:07.503Z,99446.78
2023-10-13T22:34:37.455Z,99450.13
2023-10-13T22:37:07.716Z,99439.53
2023-10-13T22:39:40.281Z,99436.91
2023-10-13T22:42:13.474Z,99430.56
2023-10-13T22:44:43.426Z,99415.53
2023-10-13T22:47:13.316Z,99396.03
2023-10-13T22:49:43.606Z,99397.75
2023-10-13T22:52:14.050Z,99395.09
2023-10-13T22:54:46.624Z,99390.72
2023-10-13T22:57:18.210Z,99398.84
2023-10-13T23:40:07.992Z,99358.69
2023-10-13T23:43:01.217Z,99338.38
2023-10-13T23:45:42.250Z,99314.50
2023-10-13T23:51:55.203Z,99293.16
2023-10-13T23:54:42.176Z,99311.69
2023-10-13T23:57:15.712Z,99397.41
2023-10-13T23:59:55.729Z,99446.56
